sensor_id;sensor_type;location;lat;lon;timestamp;P1;durP1;ratioP1;P2;durP2;ratioP2
56457;SDS011;42360;42.918;12.366;2023-05-10T00:01:29;4.03;;;3.20;;
56457;SDS011;42360;42.918;12.366;2023-05-10T00:03:54;4.05;;;3.45;;
56457;SDS011;42360;42.918;12.366;2023-05-10T00:06:20;4.90;;;4.13;;
56457;SDS011;42360;42.918;12.366;2023-05-10T00:08:46;4.15;;;3.80;;
56457;SDS011;42360;42.918;12.366;2023-05-10T00:11:11;5.65;;;4.18;;
56457;SDS011;42360;42.918;12.366;2023-05-10T00:13:37;5.15;;;3.80;;
56457;SDS011;42360;42.918;12.366;2023-05-10T00:16:02;4.30;;;3.15;;
56457;SDS011;42360;42.918;12.366;2023-05-10T00:18:28;6.97;;;4.72;;
56457;SDS011;42360;42.918;12.366;2023-05-10T00:20:53;5.63;;;3.25;;
56457;SDS011;42360;42.918;12.366;2023-05-10T00:23:18;5.13;;;3.80;;
56457;SDS011;42360;42.918;12.366;2023-05-10T00:25:44;5.50;;;3.80;;
56457;SDS011;42360;42.918;12.366;2023-05-10T00:28:09;4.65;;;4.03;;
56457;SDS011;42360;42.918;12.366;2023-05-10T00:30:35;6.45;;;4.70;;
56457;SDS011;42360;42.918;12.366;2023-05-10T00:33:00;6.30;;;4.30;;
56457;SDS011;42360;42.918;12.366;2023-05-10T00:35:26;7.38;;;5.10;;
56457;SDS011;42360;42.918;12.366;2023-05-10T00:37:51;7.82;;;4.93;;
56457;SDS011;42360;42.918;12.366;2023-05-10T00:40:17;7.15;;;4.82;;
56457;SDS011;42360;42.918;12.366;2023-05-10T00:42:42;6.50;;;4.28;;
56457;SDS011;42360;42.918;12.366;2023-05-10T00:45:08;6.88;;;4.03;;
56457;SDS011;42360;42.918;12.366;2023-05-10T00:47:34;7.07;;;4.50;;
56457;SDS011;42360;42.918;12.366;2023-05-10T00:49:59;9.27;;;5.53;;
56457;SDS011;42360;42.918;12.366;2023-05-10T00:52:26;6.97;;;4.63;;
56457;SDS011;42360;42.918;12.366;2023-05-10T00:54:54;7.10;;;4.53;;
56457;SDS011;42360;42.918;12.366;2023-05-10T00:57:20;10.23;;;5.82;;
56457;SDS011;42360;42.918;12.366;2023-05-10T00:59:46;6.05;;;4.20;;
56457;SDS011;42360;42.918;12.366;2023-05-10T01:02:11;6.90;;;5.00;;
56457;SDS011;42360;42.918;12.366;2023-05-10T01:04:38;7.00;;;5.22;;
56457;SDS011;42360;42.918;12.366;2023-05-10T01:07:04;7.93;;;4.72;;
56457;SDS011;42360;42.918;12.366;2023-05-10T01:09:30;6.93;;;4.80;;
56457;SDS011;42360;42.918;12.366;2023-05-10T01:11:55;8.13;;;5.35;;
56457;SDS011;42360;42.918;12.366;2023-05-10T01:14:21;8.57;;;5.55;;
56457;SDS011;42360;42.918;12.366;2023-05-10T01:16:47;8.13;;;5.88;;
56457;SDS011;42360;42.918;12.366;2023-05-10T01:19:24;7.60;;;5.82;;
56457;SDS011;42360;42.918;12.366;2023-05-10T01:38:54;9.57;;;4.85;;
56457;SDS011;42360;42.918;12.366;2023-05-10T01:44:00;7.78;;;6.20;;
56457;SDS011;42360;42.918;12.366;2023-05-10T01:48:57;5.95;;;4.75;;
56457;SDS011;42360;42.918;12.366;2023-05-10T01:51:24;6.38;;;4.70;;
56457;SDS011;42360;42.918;12.366;2023-05-10T01:53:54;6.57;;;5.03;;
56457;SDS011;42360;42.918;12.366;2023-05-10T01:56:25;7.90;;;5.38;;
56457;SDS011;42360;42.918;12.366;2023-05-10T01:58:51;6.43;;;4.65;;
56457;SDS011;42360;42.918;12.366;2023-05-10T02:01:17;6.63;;;4.50;;
56457;SDS011;42360;42.918;12.366;2023-05-10T02:03:45;10.68;;;5.80;;
56457;SDS011;42360;42.918;12.366;2023-05-10T02:06:12;8.38;;;5.63;;
56457;SDS011;42360;42.918;12.366;2023-05-10T02:08:38;7.60;;;5.72;;
56457;SDS011;42360;42.918;12.366;2023-05-10T02:11:04;11.00;;;6.53;;
56457;SDS011;42360;42.918;12.366;2023-05-10T02:13:31;6.65;;;4.88;;
56457;SDS011;42360;42.918;12.366;2023-05-10T02:15:57;8.93;;;6.18;;
56457;SDS011;42360;42.918;12.366;2023-05-10T02:18:24;11.23;;;7.25;;
56457;SDS011;42360;42.918;12.366;2023-05-10T02:20:50;9.70;;;6.20;;
56457;SDS011;42360;42.918;12.366;2023-05-10T02:23:17;11.18;;;6.78;;
56457;SDS011;42360;42.918;12.366;2023-05-10T02:25:43;10.68;;;7.18;;
56457;SDS011;42360;42.918;12.366;2023-05-10T02:28:09;10.82;;;7.18;;
56457;SDS011;42360;42.918;12.366;2023-05-10T02:30:35;11.07;;;7.03;;
56457;SDS011;42360;42.918;12.366;2023-05-10T02:33:01;12.73;;;6.63;;
56457;SDS011;42360;42.918;12.366;2023-05-10T02:35:29;14.55;;;7.60;;
56457;SDS011;42360;42.918;12.366;2023-05-10T02:37:54;11.93;;;8.18;;
56457;SDS011;42360;42.918;12.366;2023-05-10T02:40:21;10.95;;;8.02;;
56457;SDS011;42360;42.918;12.366;2023-05-10T02:42:48;11.27;;;7.82;;
56457;SDS011;42360;42.918;12.366;2023-05-10T02:45:19;11.90;;;7.95;;
56457;SDS011;42360;42.918;12.366;2023-05-10T02:47:46;12.18;;;7.78;;
56457;SDS011;42360;42.918;12.366;2023-05-10T02:50:12;12.05;;;7.85;;
56457;SDS011;42360;42.918;12.366;2023-05-10T02:52:42;12.43;;;7.80;;
56457;SDS011;42360;42.918;12.366;2023-05-10T02:55:11;13.05;;;8.32;;
56457;SDS011;42360;42.918;12.366;2023-05-10T02:57:38;11.35;;;6.57;;
56457;SDS011;42360;42.918;12.366;2023-05-10T03:00:07;9.70;;;6.50;;
56457;SDS011;42360;42.918;12.366;2023-05-10T03:02:33;9.65;;;7.20;;
56457;SDS011;42360;42.918;12.366;2023-05-10T03:04:59;11.77;;;7.32;;
56457;SDS011;42360;42.918;12.366;2023-05-10T03:07:24;10.05;;;7.15;;
56457;SDS011;42360;42.918;12.366;2023-05-10T03:09:50;12.38;;;7.60;;
56457;SDS011;42360;42.918;12.366;2023-05-10T03:12:19;14.73;;;8.30;;
56457;SDS011;42360;42.918;12.366;2023-05-10T03:17:47;10.15;;;7.60;;
56457;SDS011;42360;42.918;12.366;2023-05-10T03:20:23;9.82;;;6.72;;
56457;SDS011;42360;42.918;12.366;2023-05-10T03:23:00;9.88;;;7.25;;
56457;SDS011;42360;42.918;12.366;2023-05-10T03:25:29;10.38;;;6.60;;
56457;SDS011;42360;42.918;12.366;2023-05-10T03:27:56;12.95;;;7.13;;
56457;SDS011;42360;42.918;12.366;2023-05-10T03:30:22;9.77;;;6.85;;
56457;SDS011;42360;42.918;12.366;2023-05-10T03:32:47;12.68;;;7.30;;
56457;SDS011;42360;42.918;12.366;2023-05-10T03:35:13;13.15;;;7.78;;
56457;SDS011;42360;42.918;12.366;2023-05-10T03:37:39;11.32;;;7.50;;
56457;SDS011;42360;42.918;12.366;2023-05-10T03:40:05;11.60;;;7.88;;
56457;SDS011;42360;42.918;12.366;2023-05-10T03:42:30;11.35;;;7.70;;
56457;SDS011;42360;42.918;12.366;2023-05-10T03:44:56;11.90;;;7.90;;
56457;SDS011;42360;42.918;12.366;2023-05-10T03:47:21;11.98;;;7.78;;
56457;SDS011;42360;42.918;12.366;2023-05-10T03:49:48;11.32;;;7.80;;
56457;SDS011;42360;42.918;12.366;2023-05-10T03:52:17;13.25;;;8.45;;
56457;SDS011;42360;42.918;12.366;2023-05-10T03:54:43;13.05;;;8.68;;
56457;SDS011;42360;42.918;12.366;2023-05-10T03:57:08;12.68;;;8.30;;
56457;SDS011;42360;42.918;12.366;2023-05-10T03:59:34;11.23;;;7.30;;
56457;SDS011;42360;42.918;12.366;2023-05-10T04:02:00;13.95;;;8.88;;
56457;SDS011;42360;42.918;12.366;2023-05-10T04:04:25;11.60;;;8.02;;
56457;SDS011;42360;42.918;12.366;2023-05-10T04:06:51;11.50;;;8.00;;
56457;SDS011;42360;42.918;12.366;2023-05-10T04:09:16;14.55;;;8.68;;
56457;SDS011;42360;42.918;12.366;2023-05-10T04:11:42;13.32;;;8.95;;
56457;SDS011;42360;42.918;12.366;2023-05-10T04:14:08;13.57;;;8.95;;
56457;SDS011;42360;42.918;12.366;2023-05-10T04:16:33;13.15;;;8.77;;
56457;SDS011;42360;42.918;12.366;2023-05-10T04:18:59;13.20;;;8.98;;
56457;SDS011;42360;42.918;12.366;2023-05-10T04:21:25;13.65;;;8.65;;
56457;SDS011;42360;42.918;12.366;2023-05-10T04:23:50;11.82;;;8.32;;
56457;SDS011;42360;42.918;12.366;2023-05-10T04:26:16;15.32;;;8.55;;
56457;SDS011;42360;42.918;12.366;2023-05-10T04:28:41;11.00;;;8.07;;
56457;SDS011;42360;42.918;12.366;2023-05-10T04:31:07;14.55;;;8.18;;
56457;SDS011;42360;42.918;12.366;2023-05-10T04:33:34;11.18;;;7.63;;
56457;SDS011;42360;42.918;12.366;2023-05-10T04:36:00;11.82;;;8.00;;
56457;SDS011;42360;42.918;12.366;2023-05-10T04:38:26;12.48;;;7.72;;
56457;SDS011;42360;42.918;12.366;2023-05-10T04:40:52;18.10;;;8.77;;
56457;SDS011;42360;42.918;12.366;2023-05-10T04:43:18;13.38;;;8.20;;
56457;SDS011;42360;42.918;12.366;2023-05-10T04:45:43;14.30;;;8.13;;
56457;SDS011;42360;42.918;12.366;2023-05-10T04:48:09;13.13;;;8.80;;
56457;SDS011;42360;42.918;12.366;2023-05-10T04:50:34;12.32;;;7.93;;
56457;SDS011;42360;42.918;12.366;2023-05-10T04:53:00;13.32;;;9.02;;
56457;SDS011;42360;42.918;12.366;2023-05-10T04:55:25;11.00;;;7.32;;
56457;SDS011;42360;42.918;12.366;2023-05-10T04:57:52;12.32;;;6.88;;
56457;SDS011;42360;42.918;12.366;2023-05-10T05:00:18;12.23;;;8.50;;
56457;SDS011;42360;42.918;12.366;2023-05-10T05:02:44;12.93;;;8.50;;
56457;SDS011;42360;42.918;12.366;2023-05-10T05:05:11;14.60;;;8.30;;
56457;SDS011;42360;42.918;12.366;2023-05-10T05:07:37;12.95;;;8.73;;
56457;SDS011;42360;42.918;12.366;2023-05-10T05:10:03;12.68;;;8.70;;
56457;SDS011;42360;42.918;12.366;2023-05-10T05:12:33;12.23;;;7.82;;
56457;SDS011;42360;42.918;12.366;2023-05-10T05:14:58;15.80;;;8.23;;
56457;SDS011;42360;42.918;12.366;2023-05-10T05:17:24;17.05;;;8.85;;
56457;SDS011;42360;42.918;12.366;2023-05-10T05:19:49;13.02;;;8.30;;
56457;SDS011;42360;42.918;12.366;2023-05-10T05:22:14;12.75;;;8.93;;
56457;SDS011;42360;42.918;12.366;2023-05-10T05:24:40;11.23;;;7.25;;
56457;SDS011;42360;42.918;12.366;2023-05-10T05:27:06;12.45;;;9.07;;
56457;SDS011;42360;42.918;12.366;2023-05-10T05:29:32;10.13;;;7.00;;
56457;SDS011;42360;42.918;12.366;2023-05-10T05:31:57;14.10;;;9.32;;
56457;SDS011;42360;42.918;12.366;2023-05-10T05:34:23;12.70;;;8.65;;
56457;SDS011;42360;42.918;12.366;2023-05-10T05:36:49;12.98;;;8.48;;
56457;SDS011;42360;42.918;12.366;2023-05-10T05:39:15;11.65;;;7.95;;
56457;SDS011;42360;42.918;12.366;2023-05-10T05:41:41;13.07;;;8.05;;
56457;SDS011;42360;42.918;12.366;2023-05-10T05:44:08;12.13;;;7.20;;
56457;SDS011;42360;42.918;12.366;2023-05-10T05:46:33;12.00;;;7.03;;
56457;SDS011;42360;42.918;12.366;2023-05-10T05:48:58;10.93;;;7.25;;
56457;SDS011;42360;42.918;12.366;2023-05-10T05:51:24;11.75;;;8.20;;
56457;SDS011;42360;42.918;12.366;2023-05-10T05:53:50;12.13;;;7.10;;
56457;SDS011;42360;42.918;12.366;2023-05-10T05:56:15;11.55;;;7.57;;
56457;SDS011;42360;42.918;12.366;2023-05-10T05:58:42;10.70;;;7.50;;
56457;SDS011;42360;42.918;12.366;2023-05-10T06:01:08;11.77;;;7.22;;
56457;SDS011;42360;42.918;12.366;2023-05-10T06:03:34;13.82;;;8.27;;
56457;SDS011;42360;42.918;12.366;2023-05-10T06:05:59;10.68;;;7.03;;
56457;SDS011;42360;42.918;12.366;2023-05-10T06:08:25;12.52;;;7.68;;
56457;SDS011;42360;42.918;12.366;2023-05-10T06:10:50;13.00;;;8.57;;
56457;SDS011;42360;42.918;12.366;2023-05-10T06:13:16;12.13;;;8.50;;
56457;SDS011;42360;42.918;12.366;2023-05-10T06:15:41;11.48;;;7.10;;
56457;SDS011;42360;42.918;12.366;2023-05-10T06:18:07;12.45;;;7.53;;
56457;SDS011;42360;42.918;12.366;2023-05-10T06:20:32;13.40;;;7.72;;
56457;SDS011;42360;42.918;12.366;2023-05-10T06:22:58;12.02;;;6.97;;
56457;SDS011;42360;42.918;12.366;2023-05-10T06:25:23;12.95;;;7.78;;
56457;SDS011;42360;42.918;12.366;2023-05-10T06:27:49;12.85;;;7.95;;
56457;SDS011;42360;42.918;12.366;2023-05-10T06:30:14;12.48;;;8.30;;
56457;SDS011;42360;42.918;12.366;2023-05-10T06:32:40;12.73;;;9.15;;
56457;SDS011;42360;42.918;12.366;2023-05-10T06:35:06;10.88;;;7.30;;
56457;SDS011;42360;42.918;12.366;2023-05-10T06:37:32;13.30;;;9.05;;
56457;SDS011;42360;42.918;12.366;2023-05-10T06:39:58;12.88;;;8.73;;
56457;SDS011;42360;42.918;12.366;2023-05-10T06:42:23;15.68;;;8.75;;
56457;SDS011;42360;42.918;12.366;2023-05-10T06:44:50;10.57;;;7.57;;
56457;SDS011;42360;42.918;12.366;2023-05-10T06:47:16;11.15;;;8.10;;
56457;SDS011;42360;42.918;12.366;2023-05-10T06:49:42;9.73;;;5.82;;
56457;SDS011;42360;42.918;12.366;2023-05-10T06:52:07;7.72;;;5.43;;
56457;SDS011;42360;42.918;12.366;2023-05-10T06:54:33;10.60;;;7.35;;
56457;SDS011;42360;42.918;12.366;2023-05-10T06:56:58;11.15;;;8.10;;
56457;SDS011;42360;42.918;12.366;2023-05-10T06:59:24;10.27;;;6.72;;
56457;SDS011;42360;42.918;12.366;2023-05-10T07:01:50;8.27;;;6.13;;
56457;SDS011;42360;42.918;12.366;2023-05-10T07:04:15;11.63;;;6.93;;
56457;SDS011;42360;42.918;12.366;2023-05-10T07:06:41;10.32;;;6.78;;
56457;SDS011;42360;42.918;12.366;2023-05-10T07:09:06;12.82;;;7.90;;
56457;SDS011;42360;42.918;12.366;2023-05-10T07:11:32;9.52;;;7.43;;
56457;SDS011;42360;42.918;12.366;2023-05-10T07:13:58;11.68;;;8.18;;
56457;SDS011;42360;42.918;12.366;2023-05-10T07:16:23;11.43;;;7.65;;
56457;SDS011;42360;42.918;12.366;2023-05-10T07:18:49;10.38;;;7.43;;
56457;SDS011;42360;42.918;12.366;2023-05-10T07:21:15;11.25;;;7.50;;
56457;SDS011;42360;42.918;12.366;2023-05-10T07:23:41;12.50;;;7.53;;
56457;SDS011;42360;42.918;12.366;2023-05-10T07:26:06;12.95;;;7.85;;
56457;SDS011;42360;42.918;12.366;2023-05-10T07:28:32;11.93;;;7.20;;
56457;SDS011;42360;42.918;12.366;2023-05-10T07:30:58;10.27;;;6.82;;
56457;SDS011;42360;42.918;12.366;2023-05-10T07:33:23;14.73;;;7.93;;
56457;SDS011;42360;42.918;12.366;2023-05-10T07:35:49;10.38;;;6.25;;
56457;SDS011;42360;42.918;12.366;2023-05-10T07:38:15;9.13;;;6.72;;
56457;SDS011;42360;42.918;12.366;2023-05-10T07:40:40;9.05;;;6.10;;
56457;SDS011;42360;42.918;12.366;2023-05-10T07:43:06;9.23;;;7.47;;
56457;SDS011;42360;42.918;12.366;2023-05-10T07:45:31;7.95;;;5.97;;
56457;SDS011;42360;42.918;12.366;2023-05-10T07:47:58;13.05;;;9.02;;
56457;SDS011;42360;42.918;12.366;2023-05-10T07:50:23;10.52;;;7.63;;
56457;SDS011;42360;42.918;12.366;2023-05-10T07:52:49;5.43;;;4.53;;
56457;SDS011;42360;42.918;12.366;2023-05-10T07:55:14;6.28;;;4.40;;
56457;SDS011;42360;42.918;12.366;2023-05-10T07:57:41;6.28;;;4.80;;
56457;SDS011;42360;42.918;12.366;2023-05-10T08:00:07;8.60;;;5.72;;
56457;SDS011;42360;42.918;12.366;2023-05-10T08:02:34;5.72;;;4.13;;
56457;SDS011;42360;42.918;12.366;2023-05-10T08:05:00;7.22;;;5.35;;
56457;SDS011;42360;42.918;12.366;2023-05-10T08:07:26;8.30;;;5.30;;
56457;SDS011;42360;42.918;12.366;2023-05-10T08:09:51;6.53;;;4.78;;
56457;SDS011;42360;42.918;12.366;2023-05-10T08:12:17;7.25;;;4.53;;
56457;SDS011;42360;42.918;12.366;2023-05-10T08:14:42;5.47;;;4.32;;
56457;SDS011;42360;42.918;12.366;2023-05-10T08:17:07;8.90;;;5.63;;
56457;SDS011;42360;42.918;12.366;2023-05-10T08:19:33;9.50;;;7.50;;
56457;SDS011;42360;42.918;12.366;2023-05-10T08:21:59;9.18;;;6.68;;
56457;SDS011;42360;42.918;12.366;2023-05-10T08:24:25;5.97;;;4.72;;
56457;SDS011;42360;42.918;12.366;2023-05-10T08:26:50;7.13;;;5.15;;
56457;SDS011;42360;42.918;12.366;2023-05-10T08:29:16;8.18;;;4.93;;
56457;SDS011;42360;42.918;12.366;2023-05-10T08:31:41;8.00;;;5.93;;
56457;SDS011;42360;42.918;12.366;2023-05-10T08:34:07;4.88;;;3.63;;
56457;SDS011;42360;42.918;12.366;2023-05-10T08:36:32;7.63;;;5.00;;
56457;SDS011;42360;42.918;12.366;2023-05-10T08:38:58;5.45;;;3.38;;
56457;SDS011;42360;42.918;12.366;2023-05-10T08:41:24;7.18;;;4.35;;
56457;SDS011;42360;42.918;12.366;2023-05-10T08:43:51;4.47;;;3.58;;
56457;SDS011;42360;42.918;12.366;2023-05-10T08:46:17;5.53;;;3.65;;
56457;SDS011;42360;42.918;12.366;2023-05-10T08:48:47;4.65;;;4.05;;
56457;SDS011;42360;42.918;12.366;2023-05-10T08:51:14;8.70;;;5.43;;
56457;SDS011;42360;42.918;12.366;2023-05-10T08:53:42;6.30;;;4.30;;
56457;SDS011;42360;42.918;12.366;2023-05-10T08:56:09;7.00;;;4.82;;
56457;SDS011;42360;42.918;12.366;2023-05-10T08:58:34;5.43;;;3.97;;
56457;SDS011;42360;42.918;12.366;2023-05-10T09:01:00;2.95;;;2.55;;
56457;SDS011;42360;42.918;12.366;2023-05-10T09:03:26;3.65;;;3.08;;
56457;SDS011;42360;42.918;12.366;2023-05-10T09:05:51;6.07;;;3.72;;
56457;SDS011;42360;42.918;12.366;2023-05-10T09:08:17;6.13;;;4.15;;
56457;SDS011;42360;42.918;12.366;2023-05-10T09:10:43;4.60;;;3.88;;
56457;SDS011;42360;42.918;12.366;2023-05-10T09:13:12;6.88;;;4.68;;
56457;SDS011;42360;42.918;12.366;2023-05-10T09:15:39;7.18;;;5.60;;
56457;SDS011;42360;42.918;12.366;2023-05-10T09:18:04;5.72;;;4.35;;
56457;SDS011;42360;42.918;12.366;2023-05-10T09:20:30;5.85;;;4.63;;
56457;SDS011;42360;42.918;12.366;2023-05-10T09:22:56;6.90;;;4.57;;
56457;SDS011;42360;42.918;12.366;2023-05-10T09:25:21;5.22;;;4.13;;
56457;SDS011;42360;42.918;12.366;2023-05-10T09:27:47;6.97;;;5.03;;
56457;SDS011;42360;42.918;12.366;2023-05-10T09:30:34;6.63;;;4.60;;
56457;SDS011;42360;42.918;12.366;2023-05-10T09:32:59;7.18;;;4.97;;
56457;SDS011;42360;42.918;12.366;2023-05-10T09:35:26;4.38;;;3.17;;
56457;SDS011;42360;42.918;12.366;2023-05-10T09:37:54;5.80;;;4.03;;
56457;SDS011;42360;42.918;12.366;2023-05-10T09:40:21;8.43;;;4.88;;
56457;SDS011;42360;42.918;12.366;2023-05-10T09:42:57;5.28;;;4.07;;
56457;SDS011;42360;42.918;12.366;2023-05-10T09:45:31;3.30;;;2.58;;
56457;SDS011;42360;42.918;12.366;2023-05-10T09:47:59;8.05;;;5.05;;
56457;SDS011;42360;42.918;12.366;2023-05-10T09:50:26;4.75;;;3.80;;
56457;SDS011;42360;42.918;12.366;2023-05-10T09:52:53;5.47;;;4.15;;
56457;SDS011;42360;42.918;12.366;2023-05-10T09:55:38;5.43;;;4.78;;
56457;SDS011;42360;42.918;12.366;2023-05-10T09:58:05;4.50;;;4.03;;
56457;SDS011;42360;42.918;12.366;2023-05-10T10:00:38;3.78;;;2.90;;
56457;SDS011;42360;42.918;12.366;2023-05-10T10:03:12;4.55;;;3.40;;
56457;SDS011;42360;42.918;12.366;2023-05-10T10:05:39;6.93;;;5.55;;
56457;SDS011;42360;42.918;12.366;2023-05-10T10:08:05;5.78;;;4.68;;
56457;SDS011;42360;42.918;12.366;2023-05-10T10:10:32;4.80;;;3.67;;
56457;SDS011;42360;42.918;12.366;2023-05-10T10:12:58;5.38;;;3.53;;
56457;SDS011;42360;42.918;12.366;2023-05-10T10:15:24;7.57;;;4.72;;
56457;SDS011;42360;42.918;12.366;2023-05-10T10:17:50;7.22;;;4.25;;
56457;SDS011;42360;42.918;12.366;2023-05-10T10:20:17;5.78;;;4.47;;
56457;SDS011;42360;42.918;12.366;2023-05-10T10:22:43;6.00;;;4.80;;
56457;SDS011;42360;42.918;12.366;2023-05-10T10:25:10;5.10;;;4.15;;
56457;SDS011;42360;42.918;12.366;2023-05-10T10:27:40;4.63;;;3.45;;
56457;SDS011;42360;42.918;12.366;2023-05-10T10:30:16;6.18;;;4.47;;
56457;SDS011;42360;42.918;12.366;2023-05-10T10:35:20;5.88;;;3.67;;
56457;SDS011;42360;42.918;12.366;2023-05-10T10:37:46;5.03;;;4.32;;
56457;SDS011;42360;42.918;12.366;2023-05-10T10:40:22;4.88;;;3.42;;
56457;SDS011;42360;42.918;12.366;2023-05-10T10:42:50;3.65;;;3.17;;
56457;SDS011;42360;42.918;12.366;2023-05-10T10:45:15;3.47;;;2.72;;
56457;SDS011;42360;42.918;12.366;2023-05-10T10:47:41;4.18;;;3.35;;
56457;SDS011;42360;42.918;12.366;2023-05-10T10:50:08;5.57;;;3.80;;
56457;SDS011;42360;42.918;12.366;2023-05-10T10:52:37;4.47;;;3.53;;
56457;SDS011;42360;42.918;12.366;2023-05-10T11:00:33;4.95;;;4.13;;
56457;SDS011;42360;42.918;12.366;2023-05-10T11:05:35;10.75;;;4.57;;
56457;SDS011;42360;42.918;12.366;2023-05-10T11:13:32;3.47;;;2.92;;
56457;SDS011;42360;42.918;12.366;2023-05-10T11:15:58;4.47;;;3.35;;
56457;SDS011;42360;42.918;12.366;2023-05-10T11:18:28;5.20;;;3.78;;
56457;SDS011;42360;42.918;12.366;2023-05-10T11:20:59;4.00;;;3.60;;
56457;SDS011;42360;42.918;12.366;2023-05-10T11:23:32;5.20;;;4.43;;
56457;SDS011;42360;42.918;12.366;2023-05-10T11:25:59;3.90;;;2.47;;
56457;SDS011;42360;42.918;12.366;2023-05-10T11:28:26;4.82;;;3.65;;
56457;SDS011;42360;42.918;12.366;2023-05-10T11:30:52;5.00;;;3.85;;
56457;SDS011;42360;42.918;12.366;2023-05-10T11:33:20;5.55;;;3.60;;
56457;SDS011;42360;42.918;12.366;2023-05-10T11:35:45;6.07;;;5.03;;
56457;SDS011;42360;42.918;12.366;2023-05-10T11:38:11;6.00;;;4.20;;
56457;SDS011;42360;42.918;12.366;2023-05-10T11:40:38;3.97;;;3.60;;
56457;SDS011;42360;42.918;12.366;2023-05-10T11:43:04;5.63;;;4.47;;
56457;SDS011;42360;42.918;12.366;2023-05-10T11:45:33;7.43;;;4.40;;
56457;SDS011;42360;42.918;12.366;2023-05-10T11:47:59;5.70;;;3.92;;
56457;SDS011;42360;42.918;12.366;2023-05-10T11:50:24;5.03;;;3.63;;
56457;SDS011;42360;42.918;12.366;2023-05-10T11:52:54;4.90;;;4.18;;
56457;SDS011;42360;42.918;12.366;2023-05-10T11:55:20;5.28;;;4.50;;
56457;SDS011;42360;42.918;12.366;2023-05-10T11:57:53;3.58;;;2.80;;
56457;SDS011;42360;42.918;12.366;2023-05-10T12:00:19;6.50;;;3.92;;
56457;SDS011;42360;42.918;12.366;2023-05-10T12:02:44;6.53;;;4.22;;
56457;SDS011;42360;42.918;12.366;2023-05-10T12:05:10;5.93;;;4.35;;
56457;SDS011;42360;42.918;12.366;2023-05-10T12:07:36;4.45;;;3.17;;
56457;SDS011;42360;42.918;12.366;2023-05-10T12:10:05;6.63;;;4.72;;
56457;SDS011;42360;42.918;12.366;2023-05-10T12:12:43;5.13;;;4.07;;
56457;SDS011;42360;42.918;12.366;2023-05-10T12:15:10;5.75;;;4.97;;
56457;SDS011;42360;42.918;12.366;2023-05-10T12:17:46;6.97;;;4.82;;
56457;SDS011;42360;42.918;12.366;2023-05-10T12:20:12;7.45;;;5.47;;
56457;SDS011;42360;42.918;12.366;2023-05-10T12:22:56;6.30;;;4.30;;
56457;SDS011;42360;42.918;12.366;2023-05-10T12:25:24;4.18;;;3.25;;
56457;SDS011;42360;42.918;12.366;2023-05-10T12:27:56;7.07;;;5.18;;
56457;SDS011;42360;42.918;12.366;2023-05-10T12:30:23;6.03;;;4.82;;
56457;SDS011;42360;42.918;12.366;2023-05-10T12:32:53;4.13;;;3.60;;
56457;SDS011;42360;42.918;12.366;2023-05-10T12:35:19;6.00;;;3.92;;
56457;SDS011;42360;42.918;12.366;2023-05-10T12:37:49;8.60;;;5.82;;
56457;SDS011;42360;42.918;12.366;2023-05-10T12:40:15;4.15;;;3.35;;
56457;SDS011;42360;42.918;12.366;2023-05-10T12:42:41;7.40;;;4.70;;
56457;SDS011;42360;42.918;12.366;2023-05-10T12:45:07;7.45;;;5.20;;
56457;SDS011;42360;42.918;12.366;2023-05-10T12:47:33;5.95;;;4.55;;
56457;SDS011;42360;42.918;12.366;2023-05-10T12:50:00;5.45;;;3.25;;
56457;SDS011;42360;42.918;12.366;2023-05-10T12:52:26;11.50;;;6.95;;
56457;SDS011;42360;42.918;12.366;2023-05-10T12:54:52;8.27;;;5.57;;
56457;SDS011;42360;42.918;12.366;2023-05-10T12:57:19;6.10;;;5.45;;
56457;SDS011;42360;42.918;12.366;2023-05-10T12:59:45;6.60;;;5.57;;
56457;SDS011;42360;42.918;12.366;2023-05-10T13:02:11;8.73;;;6.10;;
56457;SDS011;42360;42.918;12.366;2023-05-10T13:04:36;7.30;;;5.10;;
56457;SDS011;42360;42.918;12.366;2023-05-10T13:07:08;7.95;;;5.75;;
56457;SDS011;42360;42.918;12.366;2023-05-10T13:09:34;7.53;;;5.38;;
56457;SDS011;42360;42.918;12.366;2023-05-10T13:11:59;8.93;;;6.40;;
56457;SDS011;42360;42.918;12.366;2023-05-10T13:14:25;9.25;;;6.13;;
56457;SDS011;42360;42.918;12.366;2023-05-10T13:16:51;6.47;;;4.43;;
56457;SDS011;42360;42.918;12.366;2023-05-10T13:19:16;5.88;;;4.28;;
56457;SDS011;42360;42.918;12.366;2023-05-10T13:21:42;6.28;;;4.55;;
56457;SDS011;42360;42.918;12.366;2023-05-10T13:24:09;6.30;;;3.70;;
56457;SDS011;42360;42.918;12.366;2023-05-10T13:26:35;7.43;;;4.97;;
56457;SDS011;42360;42.918;12.366;2023-05-10T13:29:01;4.28;;;3.50;;
56457;SDS011;42360;42.918;12.366;2023-05-10T13:31:27;8.63;;;5.00;;
56457;SDS011;42360;42.918;12.366;2023-05-10T13:33:53;8.77;;;6.65;;
56457;SDS011;42360;42.918;12.366;2023-05-10T13:36:18;3.70;;;3.05;;
56457;SDS011;42360;42.918;12.366;2023-05-10T13:38:44;5.78;;;3.92;;
56457;SDS011;42360;42.918;12.366;2023-05-10T13:41:09;3.22;;;2.90;;
56457;SDS011;42360;42.918;12.366;2023-05-10T13:43:35;4.05;;;3.58;;
56457;SDS011;42360;42.918;12.366;2023-05-10T13:46:01;7.72;;;2.92;;
56457;SDS011;42360;42.918;12.366;2023-05-10T13:48:27;3.85;;;3.03;;
56457;SDS011;42360;42.918;12.366;2023-05-10T13:50:52;4.63;;;3.83;;
56457;SDS011;42360;42.918;12.366;2023-05-10T13:53:17;5.70;;;4.13;;
56457;SDS011;42360;42.918;12.366;2023-05-10T13:55:43;5.90;;;4.05;;
56457;SDS011;42360;42.918;12.366;2023-05-10T13:58:09;3.83;;;3.47;;
56457;SDS011;42360;42.918;12.366;2023-05-10T14:00:34;2.33;;;2.20;;
56457;SDS011;42360;42.918;12.366;2023-05-10T14:03:00;2.38;;;2.15;;
56457;SDS011;42360;42.918;12.366;2023-05-10T14:05:25;3.42;;;3.03;;
56457;SDS011;42360;42.918;12.366;2023-05-10T14:07:51;6.78;;;3.55;;
56457;SDS011;42360;42.918;12.366;2023-05-10T14:10:17;4.88;;;3.70;;
56457;SDS011;42360;42.918;12.366;2023-05-10T14:12:42;4.80;;;2.70;;
56457;SDS011;42360;42.918;12.366;2023-05-10T14:15:08;5.78;;;2.97;;
56457;SDS011;42360;42.918;12.366;2023-05-10T14:17:36;5.00;;;3.58;;
56457;SDS011;42360;42.918;12.366;2023-05-10T14:20:01;5.28;;;3.65;;
56457;SDS011;42360;42.918;12.366;2023-05-10T14:22:27;4.40;;;3.42;;
56457;SDS011;42360;42.918;12.366;2023-05-10T14:24:52;4.65;;;3.70;;
56457;SDS011;42360;42.918;12.366;2023-05-10T14:27:18;4.97;;;3.55;;
56457;SDS011;42360;42.918;12.366;2023-05-10T14:29:44;6.65;;;3.70;;
56457;SDS011;42360;42.918;12.366;2023-05-10T14:32:09;9.18;;;3.80;;
56457;SDS011;42360;42.918;12.366;2023-05-10T14:34:35;5.10;;;4.10;;
56457;SDS011;42360;42.918;12.366;2023-05-10T14:37:04;4.43;;;3.58;;
56457;SDS011;42360;42.918;12.366;2023-05-10T14:39:29;6.28;;;4.32;;
56457;SDS011;42360;42.918;12.366;2023-05-10T14:41:55;4.25;;;3.55;;
56457;SDS011;42360;42.918;12.366;2023-05-10T14:44:21;5.85;;;4.15;;
56457;SDS011;42360;42.918;12.366;2023-05-10T14:46:47;3.50;;;3.20;;
56457;SDS011;42360;42.918;12.366;2023-05-10T14:49:13;3.58;;;3.03;;
56457;SDS011;42360;42.918;12.366;2023-05-10T14:51:38;2.42;;;2.20;;
56457;SDS011;42360;42.918;12.366;2023-05-10T14:54:04;5.72;;;3.47;;
56457;SDS011;42360;42.918;12.366;2023-05-10T14:56:29;3.13;;;2.42;;
56457;SDS011;42360;42.918;12.366;2023-05-10T14:58:55;4.00;;;2.10;;
56457;SDS011;42360;42.918;12.366;2023-05-10T15:01:20;5.78;;;2.63;;
56457;SDS011;42360;42.918;12.366;2023-05-10T15:03:46;2.35;;;1.77;;
56457;SDS011;42360;42.918;12.366;2023-05-10T15:06:13;4.30;;;2.78;;
56457;SDS011;42360;42.918;12.366;2023-05-10T15:08:39;3.30;;;2.30;;